Time,TemperatureF,DewpointF,PressureIn,WindDirection,WindDirectionDegrees,WindSpeedMPH,WindSpeedGustMPH,Humidity,HourlyPrecipIn,Conditions,Clouds,dailyrainin,SoftwareType,DateUTC
2013-05-18 00:02:00,54.0,45.0,-100.00,North,350,7.0,12.0,72,-99.99,,,-99.99,,2013-05-18 00:02:00,
2013-05-18 00:13:00,53.0,45.0,-100.00,NNE,20,7.0,9.0,75,-99.99,,,-99.99,,2013-05-18 00:13:00,
2013-05-18 00:21:00,53.0,46.0,-100.00,NE,45,4.0,7.0,77,-99.99,,,-99.99,,2013-05-18 00:21:00,
2013-05-18 00:33:00,54.0,46.0,-100.00,North,5,11.0,12.0,75,-99.99,,,-99.99,,2013-05-18 00:33:00,
2013-05-18 00:44:00,54.0,44.0,-100.00,NNW,340,10.0,16.0,67,-99.99,,,-99.99,,2013-05-18 00:44:00,
2013-05-18 00:54:00,55.0,40.0,-100.00,North,350,10.0,16.0,58,-99.99,,,-99.99,,2013-05-18 00:54:00,
2013-05-18 01:02:00,54.0,40.0,-100.00,North,350,12.0,17.0,58,-99.99,,,-99.99,,2013-05-18 01:02:00,
2013-05-18 01:13:00,54.0,39.0,-100.00,NNW,345,10.0,16.0,57,-99.99,,,-99.99,,2013-05-18 01:13:00,
2013-05-18 01:23:00,54.0,40.0,-100.00,North,355,8.0,12.0,58,-99.99,,,-99.99,,2013-05-18 01:23:00,
2013-05-18 01:31:00,53.0,40.0,-100.00,North,350,7.0,9.0,59,-99.99,,,-99.99,,2013-05-18 01:31:00,
2013-05-18 01:42:00,54.0,39.0,-100.00,NNW,330,9.0,11.0,56,-99.99,,,-99.99,,2013-05-18 01:42:00,
2013-05-18 01:52:00,53.0,41.0,-100.00,North,350,9.0,12.0,63,-99.99,,,-99.99,,2013-05-18 01:52:00,
2013-05-18 02:02:00,52.0,42.0,-100.00,North,0,8.0,11.0,67,-99.99,,,-99.99,,2013-05-18 02:02:00,
2013-05-18 02:11:00,52.0,42.0,-100.00,NW,325,6.0,9.0,68,-99.99,,,-99.99,,2013-05-18 02:11:00,
2013-05-18 02:22:00,52.0,44.0,-100.00,NNW,330,6.0,7.0,73,-99.99,,,-99.99,,2013-05-18 02:22:00,
2013-05-18 02:31:00,52.0,45.0,-100.00,NNW,345,4.0,7.0,78,-99.99,,,-99.99,,2013-05-18 02:31:00,
2013-05-18 02:42:00,51.0,45.0,-100.00,SE,145,9.0,12.0,80,-99.99,,,-99.99,,2013-05-18 02:42:00,
2013-05-18 02:53:00,52.0,44.0,-100.00,SE,130,7.0,11.0,75,-99.99,,,-99.99,,2013-05-18 02:53:00,
2013-05-18 03:02:00,51.0,44.0,-100.00,SSE,155,8.0,9.0,76,-99.99,,,-99.99,,2013-05-18 03:02:00,
2013-05-18 03:11:00,52.0,43.0,-100.00,SSE,150,6.0,9.0,72,-99.99,,,-99.99,,2013-05-18 03:11:00,
2013-05-18 03:22:00,51.0,43.0,-100.00,South,170,2.0,8.0,74,-99.99,,,-99.99,,2013-05-18 03:22:00,
2013-05-18 03:32:00,51.0,43.0,-100.00,SSW,195,1.0,2.0,74,-99.99,,,-99.99,,2013-05-18 03:32:00,
2013-05-18 03:43:00,51.0,42.0,-100.00,SSE,165,2.0,2.0,69,-99.99,,,-99.99,,2013-05-18 03:43:00,
2013-05-18 03:53:00,51.0,43.0,-100.00,South,180,4.0,4.0,74,-99.99,,,-99.99,,2013-05-18 03:53:00,
2013-05-18 04:02:00,50.0,43.0,-100.00,South,185,4.0,6.0,77,-99.99,,,-99.99,,2013-05-18 04:02:00,
2013-05-18 04:12:00,50.0,44.0,-100.00,SSW,205,1.0,6.0,78,-99.99,,,-99.99,,2013-05-18 04:12:00,
2013-05-18 04:22:00,50.0,44.0,-100.00,SSW,200,0.0,2.0,79,-99.99,,,-99.99,,2013-05-18 04:22:00,
2013-05-18 04:32:00,50.0,44.0,-100.00,ESE,105,2.0,2.0,80,-99.99,,,-99.99,,2013-05-18 04:32:00,
2013-05-18 04:42:00,51.0,44.0,-100.00,NE,55,2.0,6.0,77,-99.99,,,-99.99,,2013-05-18 04:42:00,
2013-05-18 04:52:00,51.0,44.0,-100.00,NE,35,3.0,4.0,77,-99.99,,,-99.99,,2013-05-18 04:52:00,
2013-05-18 05:02:00,50.0,44.0,-100.00,East,90,4.0,6.0,81,-99.99,,,-99.99,,2013-05-18 05:02:00,
2013-05-18 05:12:00,49.0,47.0,-100.00,ESE,105,8.0,11.0,91,-99.99,,,-99.99,,2013-05-18 05:12:00,
2013-05-18 05:21:00,48.0,48.0,-100.00,SE,140,8.0,10.0,99,-99.99,,,-99.99,,2013-05-18 05:21:00,
2013-05-18 05:31:00,48.0,48.0,-100.00,SE,140,9.0,9.0,99,-99.99,,,-99.99,,2013-05-18 05:31:00,
2013-05-18 05:41:00,48.0,48.0,-100.00,SSE,155,7.0,9.0,99,-99.99,,,-99.99,,2013-05-18 05:41:00,
2013-05-18 05:51:00,47.0,47.0,-100.00,SSW,200,7.0,7.0,99,-99.99,,,-99.99,,2013-05-18 05:51:00,
2013-05-18 06:02:00,47.0,47.0,-100.00,SSW,195,7.0,9.0,99,-99.99,,,-99.99,,2013-05-18 06:02:00,
2013-05-18 06:11:00,47.0,47.0,-100.00,SSW,200,6.0,7.0,99,-99.99,,,-99.99,,2013-05-18 06:11:00,
2013-05-18 06:21:00,47.0,47.0,-100.00,SW,215,4.0,6.0,99,-99.99,,,-99.99,,2013-05-18 06:21:00,
2013-05-18 06:31:00,47.0,47.0,-100.00,NNE,25,2.0,3.0,99,-99.99,,,-99.99,,2013-05-18 06:31:00,
2013-05-18 06:41:00,47.0,47.0,-100.00,NNW,345,4.0,6.0,99,-99.99,,,-99.99,,2013-05-18 06:41:00,
2013-05-18 06:51:00,47.0,47.0,-100.00,WNW,290,2.0,4.0,99,-99.99,,,-99.99,,2013-05-18 06:51:00,
2013-05-18 07:01:00,46.0,46.0,-100.00,SSE,160,0.0,3.0,99,-99.99,,,-99.99,,2013-05-18 07:01:00,
2013-05-18 07:11:00,46.0,46.0,-100.00,SSE,160,2.0,2.0,99,-99.99,,,-99.99,,2013-05-18 07:11:00,
2013-05-18 07:21:00,46.0,46.0,-100.00,South,180,2.0,2.0,99,-99.99,,,-99.99,,2013-05-18 07:21:00,
2013-05-18 07:31:00,45.0,45.0,-100.00,SSW,205,3.0,4.0,99,-99.99,,,-99.99,,2013-05-18 07:31:00,
2013-05-18 07:42:00,47.0,47.0,-100.00,SSW,200,3.0,4.0,99,-99.99,,,-99.99,,2013-05-18 07:42:00,
2013-05-18 07:52:00,47.0,47.0,-100.00,SSW,205,4.0,4.0,99,-99.99,,,-99.99,,2013-05-18 07:52:00,
2013-05-18 08:01:00,48.0,48.0,-100.00,SSW,195,3.0,4.0,99,-99.99,,,-99.99,,2013-05-18 08:01:00,
2013-05-18 08:11:00,48.0,48.0,-100.00,SSW,210,3.0,4.0,99,-99.99,,,-99.99,,2013-05-18 08:11:00,
2013-05-18 08:21:00,48.0,48.0,-100.00,North,5,1.0,2.0,99,-99.99,,,-99.99,,2013-05-18 08:21:00,
2013-05-18 08:32:00,48.0,48.0,-100.00,WNW,300,3.0,4.0,99,-99.99,,,-99.99,,2013-05-18 08:32:00,
2013-05-18 08:42:00,48.0,48.0,-100.00,WNW,295,6.0,6.0,99,-99.99,,,-99.99,,2013-05-18 08:42:00,
2013-05-18 08:52:00,47.0,47.0,-100.00,NE,40,4.0,7.0,99,-99.99,,,-99.99,,2013-05-18 08:52:00,
2013-05-18 09:02:00,47.0,47.0,-100.00,WNW,285,6.0,7.0,99,-99.99,,,-99.99,,2013-05-18 09:02:00,
2013-05-18 09:11:00,47.0,47.0,-100.00,WNW,290,6.0,7.0,99,-99.99,,,-99.99,,2013-05-18 09:11:00,
2013-05-18 09:21:00,47.0,47.0,-100.00,NW,315,5.0,6.0,99,-99.99,,,-99.99,,2013-05-18 09:21:00,
2013-05-18 09:32:00,47.0,47.0,-100.00,North,5,12.0,13.0,99,-99.99,,,-99.99,,2013-05-18 09:32:00,
2013-05-18 09:43:00,47.0,47.0,-100.00,North,355,16.0,17.0,99,-99.99,,,-99.99,,2013-05-18 09:43:00,
2013-05-18 09:52:00,47.0,47.0,-100.00,NNE,30,5.0,11.0,99,-99.99,,,-99.99,,2013-05-18 09:52:00,
2013-05-18 10:02:00,47.0,47.0,-100.00,NNW,345,9.0,10.0,99,-99.99,,,-99.99,,2013-05-18 10:02:00,
2013-05-18 10:12:00,46.0,46.0,-100.00,NNW,330,7.0,10.0,99,-99.99,,,-99.99,,2013-05-18 10:12:00,
2013-05-18 10:22:00,46.0,46.0,-100.00,WNW,295,4.0,7.0,99,-99.99,,,-99.99,,2013-05-18 10:22:00,
2013-05-18 10:33:00,46.0,46.0,-100.00,West,280,3.0,6.0,99,-99.99,,,-99.99,,2013-05-18 10:33:00,
2013-05-18 10:42:00,46.0,46.0,-100.00,NW,305,4.0,6.0,99,-99.99,,,-99.99,,2013-05-18 10:42:00,
2013-05-18 10:52:00,46.0,46.0,-100.00,NNW,345,3.0,6.0,99,-99.99,,,-99.99,,2013-05-18 10:52:00,
2013-05-18 11:02:00,46.0,46.0,-100.00,North,5,3.0,4.0,99,-99.99,,,-99.99,,2013-05-18 11:02:00,
2013-05-18 11:12:00,46.0,46.0,-100.00,North,0,6.0,7.0,99,-99.99,,,-99.99,,2013-05-18 11:12:00,
2013-05-18 11:22:00,46.0,46.0,-100.00,North,0,5.0,7.0,99,-99.99,,,-99.99,,2013-05-18 11:22:00,
2013-05-18 11:33:00,46.0,46.0,-100.00,North,5,5.0,6.0,99,-99.99,,,-99.99,,2013-05-18 11:33:00,
2013-05-18 11:42:00,46.0,46.0,-100.00,North,10,2.0,4.0,99,-99.99,,,-99.99,,2013-05-18 11:42:00,
2013-05-18 11:52:00,46.0,46.0,-100.00,NNW,345,3.0,4.0,99,-99.99,,,-99.99,,2013-05-18 11:52:00,
2013-05-18 12:01:00,46.0,46.0,-100.00,NW,310,6.0,7.0,99,-99.99,,,-99.99,,2013-05-18 12:01:00,
2013-05-18 12:11:00,46.0,46.0,-100.00,NW,310,7.0,10.0,99,-99.99,,,-99.99,,2013-05-18 12:11:00,
2013-05-18 12:22:00,45.0,45.0,-100.00,WNW,300,10.0,12.0,99,-99.99,,,-99.99,,2013-05-18 12:22:00,
2013-05-18 12:33:00,44.0,44.0,-100.00,WNW,285,9.0,14.0,99,-99.99,,,-99.99,,2013-05-18 12:33:00,
2013-05-18 12:41:00,44.0,44.0,-100.00,West,275,13.0,17.0,99,-99.99,,,-99.99,,2013-05-18 12:41:00,
2013-05-18 12:51:00,44.0,44.0,-100.00,WNW,300,12.0,17.0,99,-99.99,,,-99.99,,2013-05-18 12:51:00,
2013-05-18 13:01:00,44.0,44.0,-100.00,NW,320,14.0,18.0,99,-99.99,,,-99.99,,2013-05-18 13:01:00,
2013-05-18 13:11:00,44.0,44.0,-100.00,NW,325,14.0,18.0,99,-99.99,,,-99.99,,2013-05-18 13:11:00,
2013-05-18 13:21:00,44.0,44.0,-100.00,NW,320,14.0,18.0,99,-99.99,,,-99.99,,2013-05-18 13:21:00,
2013-05-18 13:32:00,44.0,44.0,-100.00,NW,315,17.0,21.0,99,-99.99,,,-99.99,,2013-05-18 13:32:00,
2013-05-18 13:43:00,43.0,43.0,-100.00,WNW,300,15.0,26.0,99,-99.99,,,-99.99,,2013-05-18 13:43:00,
2013-05-18 13:52:00,43.0,43.0,-100.00,West,280,14.0,19.0,99,-99.99,,,-99.99,,2013-05-18 13:52:00,
2013-05-18 14:03:00,43.0,43.0,-100.00,WNW,285,14.0,20.0,99,-99.99,,,-99.99,,2013-05-18 14:03:00,
2013-05-18 14:12:00,43.0,43.0,-100.00,WNW,295,12.0,18.0,99,-99.99,,,-99.99,,2013-05-18 14:12:00,
2013-05-18 14:22:00,42.0,42.0,-100.00,NW,305,17.0,20.0,99,-99.99,,,-99.99,,2013-05-18 14:22:00,
2013-05-18 14:32:00,42.0,42.0,-100.00,WNW,300,16.0,20.0,99,-99.99,,,-99.99,,2013-05-18 14:32:00,
2013-05-18 14:42:00,42.0,42.0,-100.00,WNW,300,16.0,20.0,99,-99.99,,,-99.99,,2013-05-18 14:42:00,
2013-05-18 14:53:00,41.0,41.0,-100.00,WNW,285,16.0,21.0,99,-99.99,,,-99.99,,2013-05-18 14:53:00,
2013-05-18 15:03:00,41.0,41.0,-100.00,WNW,290,14.0,17.0,99,-99.99,,,-99.99,,2013-05-18 15:03:00,
2013-05-18 15:12:00,42.0,42.0,-100.00,WNW,300,12.0,17.0,99,-99.99,,,-99.99,,2013-05-18 15:12:00,
2013-05-18 15:23:00,42.0,42.0,-100.00,NW,315,13.0,16.0,99,-99.99,,,-99.99,,2013-05-18 15:23:00,
2013-05-18 15:33:00,42.0,42.0,-100.00,NW,315,12.0,17.0,99,-99.99,,,-99.99,,2013-05-18 15:33:00,
2013-05-18 15:43:00,42.0,42.0,-100.00,NW,310,16.0,18.0,99,-99.99,,,-99.99,,2013-05-18 15:43:00,
2013-05-18 15:53:00,43.0,43.0,-100.00,NW,310,15.0,18.0,99,-99.99,,,-99.99,,2013-05-18 15:53:00,
2013-05-18 16:02:00,43.0,43.0,-100.00,NW,310,12.0,16.0,99,-99.99,,,-99.99,,2013-05-18 16:02:00,
2013-05-18 16:12:00,43.0,43.0,-100.00,NW,315,11.0,16.0,99,-99.99,,,-99.99,,2013-05-18 16:12:00,
2013-05-18 16:22:00,43.0,43.0,-100.00,NW,315,12.0,16.0,99,-99.99,,,-99.99,,2013-05-18 16:22:00,
2013-05-18 16:32:00,44.0,44.0,-100.00,NW,315,10.0,14.0,98,-99.99,,,-99.99,,2013-05-18 16:32:00,
2013-05-18 16:41:00,44.0,43.0,-100.00,NNW,335,10.0,15.0,94,-99.99,,,-99.99,,2013-05-18 16:41:00,
2013-05-18 16:52:00,46.0,43.0,-100.00,NNW,335,13.0,16.0,89,-99.99,,,-99.99,,2013-05-18 16:52:00,
2013-05-18 17:02:00,47.0,43.0,-100.00,NW,315,14.0,17.0,85,-99.99,,,-99.99,,2013-05-18 17:02:00,
2013-05-18 17:12:00,47.0,42.0,-100.00,NW,315,14.0,18.0,83,-99.99,,,-99.99,,2013-05-18 17:12:00,
2013-05-18 17:22:00,48.0,41.0,-100.00,NNW,330,17.0,21.0,77,-99.99,,,-99.99,,2013-05-18 17:22:00,
2013-05-18 17:32:00,48.0,41.0,-100.00,NNW,340,18.0,22.0,75,-99.99,,,-99.99,,2013-05-18 17:32:00,
2013-05-18 17:42:00,47.0,40.0,-100.00,NNW,345,16.0,21.0,75,-99.99,,,-99.99,,2013-05-18 17:42:00,
2013-05-18 17:51:00,48.0,41.0,-100.00,North,350,15.0,23.0,75,-99.99,,,-99.99,,2013-05-18 17:51:00,
2013-05-18 18:01:00,48.0,40.0,-100.00,North,0,17.0,21.0,72,-99.99,,,-99.99,,2013-05-18 18:01:00,
2013-05-18 18:12:00,48.0,39.0,-100.00,North,0,16.0,21.0,70,-99.99,,,-99.99,,2013-05-18 18:12:00,
2013-05-18 18:21:00,50.0,40.0,-100.00,North,355,17.0,24.0,67,-99.99,,,-99.99,,2013-05-18 18:21:00,
2013-05-18 18:31:00,49.0,39.0,-100.00,North,0,13.0,23.0,67,-99.99,,,-99.99,,2013-05-18 18:31:00,
2013-05-18 18:41:00,50.0,39.0,-100.00,North,0,14.0,22.0,67,-99.99,,,-99.99,,2013-05-18 18:41:00,
2013-05-18 18:51:00,50.0,39.0,-100.00,North,0,17.0,22.0,65,-99.99,,,-99.99,,2013-05-18 18:51:00,
2013-05-18 19:01:00,50.0,40.0,-100.00,North,0,17.0,24.0,66,-99.99,,,-99.99,,2013-05-18 19:01:00,
2013-05-18 19:11:00,51.0,40.0,-100.00,NNW,345,19.0,23.0,67,-99.99,,,-99.99,,2013-05-18 19:11:00,
2013-05-18 19:21:00,50.0,40.0,-100.00,North,0,21.0,29.0,68,-99.99,,,-99.99,,2013-05-18 19:21:00,
2013-05-18 19:31:00,49.0,39.0,-100.00,North,0,24.0,31.0,67,-99.99,,,-99.99,,2013-05-18 19:31:00,
2013-05-18 19:42:00,49.0,39.0,-100.00,North,355,22.0,29.0,66,-99.99,,,-99.99,,2013-05-18 19:42:00,
2013-05-18 19:52:00,49.0,40.0,-100.00,North,0,20.0,27.0,70,-99.99,,,-99.99,,2013-05-18 19:52:00,
2013-05-18 20:01:00,48.0,39.0,-100.00,North,0,20.0,28.0,70,-99.99,,,-99.99,,2013-05-18 20:01:00,
2013-05-18 20:11:00,48.0,40.0,-100.00,North,5,19.0,26.0,71,-99.99,,,-99.99,,2013-05-18 20:11:00,
2013-05-18 20:21:00,48.0,40.0,-100.00,North,0,12.0,25.0,71,-99.99,,,-99.99,,2013-05-18 20:21:00,
2013-05-18 20:32:00,48.0,39.0,-100.00,North,0,17.0,21.0,70,-99.99,,,-99.99,,2013-05-18 20:32:00,
2013-05-18 20:42:00,48.0,39.0,-100.00,NNW,335,11.0,19.0,70,-99.99,,,-99.99,,2013-05-18 20:42:00,
2013-05-18 20:52:00,48.0,40.0,-100.00,North,350,11.0,19.0,72,-99.99,,,-99.99,,2013-05-18 20:52:00,
2013-05-18 21:01:00,48.0,39.0,-100.00,North,0,13.0,17.0,72,-99.99,,,-99.99,,2013-05-18 21:01:00,
2013-05-18 21:11:00,47.0,40.0,-100.00,North,0,14.0,17.0,74,-99.99,,,-99.99,,2013-05-18 21:11:00,
2013-05-18 21:21:00,47.0,40.0,-100.00,North,0,11.0,15.0,75,-99.99,,,-99.99,,2013-05-18 21:21:00,
2013-05-18 21:32:00,47.0,41.0,-100.00,North,0,9.0,14.0,79,-99.99,,,-99.99,,2013-05-18 21:32:00,
2013-05-18 21:43:00,47.0,42.0,-100.00,North,5,12.0,15.0,82,-99.99,,,-99.99,,2013-05-18 21:43:00,
2013-05-18 21:53:00,47.0,42.0,-100.00,North,5,7.0,15.0,82,-99.99,,,-99.99,,2013-05-18 21:53:00,
2013-05-18 22:03:00,47.0,43.0,-100.00,North,5,9.0,11.0,85,-99.99,,,-99.99,,2013-05-18 22:03:00,
2013-05-18 22:12:00,47.0,44.0,-100.00,North,350,10.0,12.0,87,-99.99,,,-99.99,,2013-05-18 22:12:00,
2013-05-18 22:23:00,47.0,43.0,-100.00,North,350,11.0,14.0,85,-99.99,,,-99.99,,2013-05-18 22:23:00,
2013-05-18 22:32:00,47.0,42.0,-100.00,North,350,10.0,16.0,83,-99.99,,,-99.99,,2013-05-18 22:32:00,
2013-05-18 22:42:00,47.0,42.0,-100.00,North,0,9.0,13.0,83,-99.99,,,-99.99,,2013-05-18 22:42:00,
2013-05-18 22:52:00,47.0,42.0,-100.00,NNW,340,9.0,13.0,81,-99.99,,,-99.99,,2013-05-18 22:52:00,
2013-05-18 23:01:00,48.0,43.0,-100.00,North,350,11.0,13.0,82,-99.99,,,-99.99,,2013-05-18 23:01:00,
2013-05-18 23:11:00,48.0,43.0,-100.00,North,350,9.0,13.0,83,-99.99,,,-99.99,,2013-05-18 23:11:00,
2013-05-18 23:21:00,48.0,43.0,-100.00,NNW,340,11.0,12.0,82,-99.99,,,-99.99,,2013-05-18 23:21:00,
2013-05-18 23:32:00,48.0,43.0,-100.00,NNW,335,11.0,16.0,82,-99.99,,,-99.99,,2013-05-18 23:32:00,
2013-05-18 23:41:00,49.0,43.0,-100.00,NNW,335,14.0,17.0,79,-99.99,,,-99.99,,2013-05-18 23:41:00,
2013-05-18 23:52:00,49.0,42.0,-100.00,NNW,345,17.0,20.0,76,-99.99,,,-99.99,,2013-05-18 23:52:00,